Back to Top

Language: 

My Weather Underground Personal Weather Station Historical Data with Graphs...

Delerius Weather Station Historical Data
Daily Summary for November 29, 2017 Units:  English    Metric   Both
« Previous Day
Next Day »
Daily Weekly Monthly Yearly Custom
  High: Low: Average:
Temperature: 42.4 °F 31.8 °F 37.8 °F
Dew Point: 37.6 °F 27.1 °F 33.2 °F
Humidity: 87 % 79 % 83 %
Wind Speed: 13.0 mph 1.0 mph 7.3 mph
Wind Gust: 24.0 mph - -
Wind:- - NW
Pressure: 29.98 in 29.82 in -
Precipitation: 0.00 in    
Historical Graphs
 
 
Tabular Data for November 29, 2017
Time Temperature Dew Point Pressure Wind Wind Speed Wind Gust Humidity Rainfall Rate (Hourly) solar Conditions
00:05 37.8 °F 33.7 °F 29.83 in NW 7.0 mph 11.0 mph 85 % 0.00 in 0 W/m2
00:10 37.9 °F 33.8 °F 29.83 in NW 8.0 mph 14.0 mph 85 % 0.00 in 0 W/m2
00:15 38.1 °F 33.7 °F 29.83 in NW 9.0 mph 16.0 mph 84 % 0.00 in 0 W/m2
00:20 38.3 °F 33.9 °F 29.83 in NW 9.0 mph 15.0 mph 84 % 0.00 in 0 W/m2
00:25 38.5 °F 34.1 °F 29.83 in NW 10.0 mph 19.0 mph 84 % 0.00 in 0 W/m2
00:30 38.5 °F 33.8 °F 29.83 in NW 9.0 mph 16.0 mph 83 % 0.00 in 0 W/m2
00:35 38.5 °F 34.1 °F 29.83 in NW 7.0 mph 12.0 mph 84 % 0.00 in 0 W/m2
00:55 38.5 °F 33.8 °F 29.83 in WNW 7.0 mph 10.0 mph 83 % 0.00 in 0 W/m2
01:00 38.3 °F 33.6 °F 29.83 in WNW 8.0 mph 13.0 mph 83 % 0.00 in 0 W/m2
01:05 38.3 °F 33.6 °F 29.83 in NW 7.0 mph 12.0 mph 83 % 0.00 in 0 W/m2
01:10 38.3 °F 33.6 °F 29.83 in WNW 7.0 mph 11.0 mph 83 % 0.00 in 0 W/m2
01:20 38.1 °F 33.4 °F 29.82 in WNW 6.0 mph 8.0 mph 83 % 0.00 in 0 W/m2
01:25 37.9 °F 33.2 °F 29.82 in WNW 7.0 mph 10.0 mph 83 % 0.00 in 0 W/m2
01:30 37.9 °F 33.5 °F 29.82 in WNW 8.0 mph 13.0 mph 84 % 0.00 in 0 W/m2
01:35 37.9 °F 33.5 °F 29.82 in WNW 7.0 mph 11.0 mph 84 % 0.00 in 0 W/m2
01:40 38.1 °F 33.7 °F 29.82 in WNW 8.0 mph 16.0 mph 84 % 0.00 in 0 W/m2
01:45 38.1 °F 33.7 °F 29.82 in WNW 7.0 mph 12.0 mph 84 % 0.00 in 0 W/m2
01:55 38.5 °F 34.1 °F 29.82 in NW 10.0 mph 15.0 mph 84 % 0.00 in 0 W/m2
02:00 38.7 °F 33.9 °F 29.82 in NW 9.0 mph 15.0 mph 83 % 0.00 in 0 W/m2
02:05 38.8 °F 34.1 °F 29.82 in NW 9.0 mph 14.0 mph 83 % 0.00 in 0 W/m2
02:10 38.8 °F 34.1 °F 29.82 in NW 9.0 mph 14.0 mph 83 % 0.00 in 0 W/m2
02:20 38.7 °F 33.9 °F 29.82 in NW 8.0 mph 14.0 mph 83 % 0.00 in 0 W/m2
02:25 38.7 °F 33.9 °F 29.82 in NW 8.0 mph 13.0 mph 83 % 0.00 in 0 W/m2
02:30 38.7 °F 33.9 °F 29.82 in NW 7.0 mph 11.0 mph 83 % 0.00 in 0 W/m2
02:35 38.5 °F 33.8 °F 29.82 in NW 9.0 mph 14.0 mph 83 % 0.00 in 0 W/m2
02:41 38.7 °F 33.9 °F 29.82 in NW 7.0 mph 12.0 mph 83 % 0.00 in 0 W/m2
02:46 38.7 °F 33.9 °F 29.82 in NW 8.0 mph 13.0 mph 83 % 0.00 in 0 W/m2
02:51 38.7 °F 33.9 °F 29.82 in NW 8.0 mph 12.0 mph 83 % 0.00 in 0 W/m2
03:01 38.7 °F 33.9 °F 29.82 in NW 7.0 mph 11.0 mph 83 % 0.00 in 0 W/m2
03:06 38.5 °F 33.8 °F 29.82 in WNW 7.0 mph 10.0 mph 83 % 0.00 in 0 W/m2
03:11 38.5 °F 33.8 °F 29.82 in NW 6.0 mph 10.0 mph 83 % 0.00 in 0 W/m2
03:19 38.1 °F 33.4 °F 29.82 in WNW 7.0 mph 11.0 mph 83 % 0.00 in 0 W/m2
03:22 38.1 °F 33.4 °F 29.82 in NW 7.0 mph 10.0 mph 83 % 0.00 in 0 W/m2
03:24 37.9 °F 33.2 °F 29.83 in WNW 6.0 mph 10.0 mph 83 % 0.00 in 0 W/m2
03:27 37.9 °F 33.5 °F 29.82 in WNW 6.0 mph 10.0 mph 84 % 0.00 in 0 W/m2
03:29 37.9 °F 33.2 °F 29.82 in NW 7.0 mph 14.0 mph 83 % 0.00 in 0 W/m2
03:37 37.8 °F 33.4 °F 29.82 in NW 7.0 mph 12.0 mph 84 % 0.00 in 0 W/m2
03:42 37.6 °F 33.2 °F 29.82 in WNW 7.0 mph 12.0 mph 84 % 0.00 in 0 W/m2
03:47 37.6 °F 33.2 °F 29.82 in NW 8.0 mph 14.0 mph 84 % 0.00 in 0 W/m2
03:52 37.8 °F 33.4 °F 29.82 in WNW 6.0 mph 11.0 mph 84 % 0.00 in 0 W/m2
03:57 37.8 °F 33.4 °F 29.82 in NW 6.0 mph 9.0 mph 84 % 0.00 in 0 W/m2
04:02 37.9 °F 33.5 °F 29.82 in NW 6.0 mph 10.0 mph 84 % 0.00 in 0 W/m2
04:17 38.3 °F 33.6 °F 29.82 in NW 8.0 mph 13.0 mph 83 % 0.00 in 0 W/m2
04:22 38.3 °F 33.6 °F 29.82 in NW 9.0 mph 15.0 mph 83 % 0.00 in 0 W/m2
04:32 38.3 °F 33.6 °F 29.82 in NW 8.0 mph 13.0 mph 83 % 0.00 in 0 W/m2
04:42 38.1 °F 33.4 °F 29.82 in NW 7.0 mph 11.0 mph 83 % 0.00 in 0 W/m2
04:48 37.9 °F 33.2 °F 29.82 in NW 6.0 mph 9.0 mph 83 % 0.00 in 0 W/m2
04:53 37.9 °F 33.2 °F 29.82 in NW 9.0 mph 18.0 mph 83 % 0.00 in 0 W/m2
04:58 37.8 °F 33.1 °F 29.82 in NW 9.0 mph 14.0 mph 83 % 0.00 in 0 W/m2
05:03 37.8 °F 33.1 °F 29.82 in NW 9.0 mph 15.0 mph 83 % 0.00 in 0 W/m2
05:08 37.8 °F 33.1 °F 29.82 in NW 10.0 mph 16.0 mph 83 % 0.00 in 0 W/m2
05:13 37.8 °F 33.1 °F 29.82 in NW 9.0 mph 14.0 mph 83 % 0.00 in 0 W/m2
05:18 37.8 °F 33.1 °F 29.82 in NW 7.0 mph 12.0 mph 83 % 0.00 in 0 W/m2
05:23 37.6 °F 32.9 °F 29.82 in NW 9.0 mph 14.0 mph 83 % 0.00 in 0 W/m2
05:28 37.6 °F 33.2 °F 29.82 in NW 9.0 mph 14.0 mph 84 % 0.00 in 0 W/m2
05:33 37.6 °F 33.2 °F 29.82 in NW 10.0 mph 15.0 mph 84 % 0.00 in 0 W/m2
05:38 37.8 °F 33.4 °F 29.82 in NW 10.0 mph 16.0 mph 84 % 0.00 in 0 W/m2
05:48 37.8 °F 33.4 °F 29.83 in NW 6.0 mph 11.0 mph 84 % 0.00 in 0 W/m2
05:53 37.8 °F 33.4 °F 29.82 in NW 8.0 mph 12.0 mph 84 % 0.00 in 0 W/m2
05:58 37.8 °F 33.4 °F 29.82 in WNW 9.0 mph 14.0 mph 84 % 0.00 in 0 W/m2
06:03 37.9 °F 33.5 °F 29.83 in NW 8.0 mph 12.0 mph 84 % 0.00 in 0 W/m2
06:08 37.9 °F 33.5 °F 29.83 in NW 8.0 mph 13.0 mph 84 % 0.00 in 0 W/m2
06:18 37.8 °F 33.7 °F 29.83 in NW 10.0 mph 18.0 mph 85 % 0.00 in 0 W/m2
06:24 37.8 °F 33.7 °F 29.83 in NW 9.0 mph 13.0 mph 85 % 0.00 in 0 W/m2
06:34 37.8 °F 33.7 °F 29.83 in NW 10.0 mph 20.0 mph 85 % 0.00 in 0 W/m2
06:39 37.8 °F 33.4 °F 29.83 in NW 8.0 mph 14.0 mph 84 % 0.00 in 0 W/m2
06:44 37.8 °F 33.7 °F 29.83 in NW 11.0 mph 16.0 mph 85 % 0.00 in 0 W/m2
07:04 37.4 °F 33.3 °F 29.83 in NW 8.0 mph 15.0 mph 85 % 0.00 in 0 W/m2
07:09 37.4 °F 33.3 °F 29.84 in NW 10.0 mph 16.0 mph 85 % 0.00 in 0 W/m2
07:14 37.4 °F 33.3 °F 29.83 in WNW 9.0 mph 14.0 mph 85 % 0.00 in 0 W/m2
07:19 37.4 °F 33.3 °F 29.84 in NW 9.0 mph 16.0 mph 85 % 0.00 in 0 W/m2
07:24 37.6 °F 33.8 °F 29.84 in NW 9.0 mph 15.0 mph 86 % 0.00 in 0 W/m2
07:29 37.6 °F 33.8 °F 29.84 in NW 11.0 mph 18.0 mph 86 % 0.00 in 0 W/m2
07:39 37.6 °F 34.1 °F 29.84 in NW 9.0 mph 16.0 mph 87 % 0.00 in 0 W/m2
07:54 37.6 °F 33.8 °F 29.85 in NW 8.0 mph 13.0 mph 86 % 0.00 in 0 W/m2
07:59 37.6 °F 33.8 °F 29.85 in NW 7.0 mph 13.0 mph 86 % 0.00 in 5 W/m2
08:04 37.4 °F 33.6 °F 29.85 in NW 7.0 mph 10.0 mph 86 % 0.00 in 5 W/m2
08:12 37.6 °F 34.1 °F 29.85 in NW 8.0 mph 15.0 mph 87 % 0.00 in 9 W/m2
08:27 37.6 °F 34.1 °F 29.86 in NW 7.0 mph 13.0 mph 87 % 0.00 in 18 W/m2
08:32 37.6 °F 34.1 °F 29.85 in NW 6.0 mph 12.0 mph 87 % 0.00 in 23 W/m2
08:37 37.8 °F 34.2 °F 29.86 in NW 6.0 mph 12.0 mph 87 % 0.00 in 18 W/m2
08:43 37.8 °F 34.2 °F 29.86 in NNW 6.0 mph 11.0 mph 87 % 0.00 in 26 W/m2
08:48 37.8 °F 33.9 °F 29.86 in NW 6.0 mph 11.0 mph 86 % 0.00 in 32 W/m2
08:53 37.8 °F 33.9 °F 29.87 in NW 5.0 mph 10.0 mph 86 % 0.00 in 42 W/m2
09:00 37.9 °F 34.1 °F 29.87 in NW 7.0 mph 9.0 mph 86 % 0.00 in 28 W/m2
09:05 37.9 °F 34.1 °F 29.87 in NW 6.0 mph 12.0 mph 86 % 0.00 in 28 W/m2
09:10 37.9 °F 34.1 °F 29.87 in NW 7.0 mph 13.0 mph 86 % 0.00 in 28 W/m2
09:15 37.9 °F 34.1 °F 29.87 in NW 8.0 mph 13.0 mph 86 % 0.00 in 32 W/m2
09:20 38.1 °F 34.3 °F 29.87 in NW 8.0 mph 13.0 mph 86 % 0.00 in 65 W/m2
09:35 38.3 °F 34.5 °F 29.87 in NW 7.0 mph 12.0 mph 86 % 0.00 in 44 W/m2
09:45 38.7 °F 34.8 °F 29.88 in NNW 6.0 mph 11.0 mph 86 % 0.00 in 49 W/m2
09:50 38.7 °F 34.8 °F 29.88 in NNW 9.0 mph 13.0 mph 86 % 0.00 in 70 W/m2
09:56 38.8 °F 35.0 °F 29.87 in NNW 9.0 mph 14.0 mph 86 % 0.00 in 42 W/m2
10:01 39.0 °F 35.2 °F 29.88 in NNW 11.0 mph 18.0 mph 86 % 0.00 in 70 W/m2
10:11 39.7 °F 35.9 °F 29.88 in NNW 7.0 mph 15.0 mph 86 % 0.00 in 130 W/m2
10:16 39.9 °F 35.8 °F 29.88 in NNW 7.0 mph 13.0 mph 85 % 0.00 in 83 W/m2
10:17 40.1 °F 36.0 °F 29.88 in NNW 8.0 mph 16.0 mph 85 % 0.00 in 91 W/m2
10:22 40.3 °F 36.1 °F 29.88 in NW 9.0 mph 12.0 mph 85 % 0.00 in 95 W/m2
10:27 40.3 °F 36.1 °F 29.89 in NNW 6.0 mph 14.0 mph 85 % 0.00 in 98 W/m2
10:32 40.5 °F 36.3 °F 29.89 in NNW 9.0 mph 14.0 mph 85 % 0.00 in 151 W/m2
10:37 40.6 °F 36.5 °F 29.89 in NNW 9.0 mph 16.0 mph 85 % 0.00 in 79 W/m2
10:42 40.6 °F 36.5 °F 29.88 in NNW 11.0 mph 21.0 mph 85 % 0.00 in 299 W/m2
10:47 40.8 °F 36.7 °F 29.89 in NNW 9.0 mph 15.0 mph 85 % 0.00 in 128 W/m2
10:57 41.0 °F 36.5 °F 29.89 in NNW 13.0 mph 21.0 mph 84 % 0.00 in 257 W/m2
11:02 41.2 °F 36.7 °F 29.89 in NNW 12.0 mph 24.0 mph 84 % 0.00 in 257 W/m2
11:07 41.2 °F 36.7 °F 29.89 in NNW 9.0 mph 18.0 mph 84 % 0.00 in 107 W/m2
11:12 41.4 °F 36.9 °F 29.89 in NNW 11.0 mph 18.0 mph 84 % 0.00 in 130 W/m2
11:17 41.4 °F 36.9 °F 29.89 in NNW 12.0 mph 18.0 mph 84 % 0.00 in 257 W/m2
11:27 41.4 °F 36.9 °F 29.90 in NNW 9.0 mph 14.0 mph 84 % 0.00 in 113 W/m2
11:37 41.4 °F 36.9 °F 29.90 in NNW 12.0 mph 21.0 mph 84 % 0.00 in 93 W/m2
11:47 41.4 °F 36.9 °F 29.90 in North 9.0 mph 14.0 mph 84 % 0.00 in 135 W/m2
11:57 41.7 °F 37.2 °F 29.90 in NNW 8.0 mph 16.0 mph 84 % 0.00 in 179 W/m2
12:02 41.7 °F 36.9 °F 29.90 in NNW 11.0 mph 18.0 mph 83 % 0.00 in 309 W/m2
12:12 42.3 °F 37.5 °F 29.90 in NNW 8.0 mph 15.0 mph 83 % 0.00 in 178 W/m2
12:17 42.4 °F 37.6 °F 29.90 in NNW 9.0 mph 14.0 mph 83 % 0.00 in 113 W/m2
12:27 42.1 °F 37.3 °F 29.90 in NNW 7.0 mph 12.0 mph 83 % 0.00 in 84 W/m2
12:32 41.9 °F 37.1 °F 29.90 in North 11.0 mph 19.0 mph 83 % 0.00 in 278 W/m2
12:37 41.9 °F 37.4 °F 29.90 in North 11.0 mph 20.0 mph 84 % 0.00 in 128 W/m2
12:52 41.7 °F 37.5 °F 29.90 in NNW 7.0 mph 11.0 mph 85 % 0.00 in 79 W/m2
12:57 41.7 °F 37.5 °F 29.90 in NNW 10.0 mph 18.0 mph 85 % 0.00 in 58 W/m2
13:02 41.7 °F 37.2 °F 29.90 in NNW 5.0 mph 12.0 mph 84 % 0.00 in 49 W/m2
13:07 41.5 °F 37.1 °F 29.90 in North 11.0 mph 21.0 mph 84 % 0.00 in 74 W/m2
13:17 41.5 °F 37.1 °F 29.90 in NNW 8.0 mph 16.0 mph 84 % 0.00 in 88 W/m2
13:22 41.5 °F 36.8 °F 29.91 in NNW 10.0 mph 16.0 mph 83 % 0.00 in 86 W/m2
13:27 41.4 °F 36.9 °F 29.91 in NNW 7.0 mph 14.0 mph 84 % 0.00 in 46 W/m2
13:37 41.4 °F 36.6 °F 29.91 in NNW 8.0 mph 12.0 mph 83 % 0.00 in 109 W/m2
13:42 41.4 °F 36.6 °F 29.92 in NNW 8.0 mph 12.0 mph 83 % 0.00 in 95 W/m2
13:47 41.4 °F 36.6 °F 29.91 in NW 9.0 mph 13.0 mph 83 % 0.00 in 86 W/m2
13:52 41.4 °F 36.6 °F 29.92 in NNW 10.0 mph 16.0 mph 83 % 0.00 in 111 W/m2
13:58 41.5 °F 36.8 °F 29.92 in NNW 9.0 mph 18.0 mph 83 % 0.00 in 83 W/m2
14:08 41.4 °F 36.3 °F 29.92 in NNW 11.0 mph 18.0 mph 82 % 0.00 in 60 W/m2
14:13 41.4 °F 36.3 °F 29.92 in NNW 10.0 mph 14.0 mph 82 % 0.00 in 58 W/m2
14:19 41.4 °F 36.3 °F 29.92 in NNW 8.0 mph 13.0 mph 82 % 0.00 in 30 W/m2
14:39 40.8 °F 36.1 °F 29.92 in NNW 7.0 mph 13.0 mph 83 % 0.00 in 39 W/m2
14:44 40.8 °F 36.1 °F 29.92 in North 4.0 mph 8.0 mph 83 % 0.00 in 33 W/m2
14:49 40.8 °F 36.1 °F 29.92 in North 7.0 mph 13.0 mph 83 % 0.00 in 37 W/m2
14:54 40.8 °F 36.1 °F 29.92 in NNW 7.0 mph 15.0 mph 83 % 0.00 in 26 W/m2
15:09 40.8 °F 35.7 °F 29.92 in NNW 5.0 mph 9.0 mph 82 % 0.00 in 16 W/m2
15:14 40.8 °F 35.7 °F 29.93 in NNW 6.0 mph 11.0 mph 82 % 0.00 in 14 W/m2
15:19 40.8 °F 35.4 °F 29.92 in NNW 7.0 mph 15.0 mph 81 % 0.00 in 7 W/m2
15:24 40.6 °F 35.3 °F 29.93 in NNW 3.0 mph 12.0 mph 81 % 0.00 in 7 W/m2
15:29 40.6 °F 35.3 °F 29.93 in NNW 6.0 mph 14.0 mph 81 % 0.00 in 7 W/m2
15:39 40.6 °F 35.3 °F 29.93 in NNW 7.0 mph 13.0 mph 81 % 0.00 in 0 W/m2
15:44 40.6 °F 35.3 °F 29.93 in NW 7.0 mph 11.0 mph 81 % 0.00 in 0 W/m2
15:49 40.6 °F 35.0 °F 29.93 in NW 5.0 mph 12.0 mph 80 % 0.00 in 0 W/m2
16:04 40.5 °F 34.5 °F 29.94 in NW 8.0 mph 11.0 mph 79 % 0.00 in 0 W/m2
16:09 40.3 °F 34.3 °F 29.94 in NNW 4.0 mph 10.0 mph 79 % 0.00 in 0 W/m2
16:14 40.1 °F 34.1 °F 29.94 in NW 5.0 mph 11.0 mph 79 % 0.00 in 0 W/m2
16:19 39.9 °F 33.9 °F 29.94 in NW 6.0 mph 9.0 mph 79 % 0.00 in 0 W/m2
16:24 39.9 °F 33.9 °F 29.95 in NW 4.0 mph 8.0 mph 79 % 0.00 in 0 W/m2
16:29 39.7 °F 33.8 °F 29.95 in NW 5.0 mph 8.0 mph 79 % 0.00 in 0 W/m2
16:34 39.6 °F 33.6 °F 29.95 in NW 7.0 mph 10.0 mph 79 % 0.00 in 0 W/m2
16:39 39.6 °F 33.6 °F 29.95 in NW 6.0 mph 13.0 mph 79 % 0.00 in 0 W/m2
16:44 39.2 °F 33.2 °F 29.96 in NW 8.0 mph 12.0 mph 79 % 0.00 in 0 W/m2
16:54 38.8 °F 32.9 °F 29.95 in NW 6.0 mph 12.0 mph 79 % 0.00 in 0 W/m2
16:59 38.7 °F 32.7 °F 29.95 in NW 5.0 mph 13.0 mph 79 % 0.00 in 0 W/m2
17:09 38.5 °F 32.5 °F 29.95 in NW 6.0 mph 9.0 mph 79 % 0.00 in 0 W/m2
17:14 38.1 °F 32.5 °F 29.95 in WNW 6.0 mph 9.0 mph 80 % 0.00 in 0 W/m2
17:24 37.9 °F 32.3 °F 29.96 in WNW 5.0 mph 12.0 mph 80 % 0.00 in 0 W/m2
17:29 37.6 °F 32.0 °F 29.96 in WNW 6.0 mph 10.0 mph 80 % 0.00 in 0 W/m2
17:40 37.2 °F 31.9 °F 29.96 in WNW 6.0 mph 9.0 mph 81 % 0.00 in 0 W/m2
17:45 37.0 °F 31.8 °F 29.96 in NW 5.0 mph 8.0 mph 81 % 0.00 in 0 W/m2
17:50 36.9 °F 31.6 °F 29.96 in NW 5.0 mph 9.0 mph 81 % 0.00 in 0 W/m2
17:55 36.7 °F 31.4 °F 29.96 in WNW 3.0 mph 7.0 mph 81 % 0.00 in 0 W/m2
18:00 36.7 °F 31.4 °F 29.97 in WNW 6.0 mph 10.0 mph 81 % 0.00 in 0 W/m2
18:05 36.5 °F 31.2 °F 29.97 in WNW 6.0 mph 9.0 mph 81 % 0.00 in 0 W/m2
18:10 36.3 °F 31.0 °F 29.97 in WNW 5.0 mph 9.0 mph 81 % 0.00 in 0 W/m2
18:20 36.1 °F 30.9 °F 29.97 in NW 4.0 mph 7.0 mph 81 % 0.00 in 0 W/m2
18:25 36.0 °F 30.7 °F 29.96 in NW 4.0 mph 8.0 mph 81 % 0.00 in 0 W/m2
18:30 35.8 °F 30.8 °F 29.97 in NW 5.0 mph 8.0 mph 82 % 0.00 in 0 W/m2
18:35 35.8 °F 30.8 °F 29.97 in WNW 4.0 mph 9.0 mph 82 % 0.00 in 0 W/m2
18:40 35.8 °F 30.8 °F 29.97 in WNW 4.0 mph 6.0 mph 82 % 0.00 in 0 W/m2
18:45 35.6 °F 30.6 °F 29.97 in WNW 5.0 mph 7.0 mph 82 % 0.00 in 0 W/m2
19:00 35.1 °F 30.4 °F 29.97 in WNW 6.0 mph 9.0 mph 83 % 0.00 in 0 W/m2
19:05 35.1 °F 30.4 °F 29.98 in WNW 6.0 mph 10.0 mph 83 % 0.00 in 0 W/m2
19:10 35.1 °F 30.4 °F 29.98 in WNW 6.0 mph 9.0 mph 83 % 0.00 in 0 W/m2
19:15 34.9 °F 30.2 °F 29.98 in WNW 7.0 mph 10.0 mph 83 % 0.00 in 0 W/m2
19:25 34.7 °F 30.1 °F 29.97 in WNW 8.0 mph 11.0 mph 83 % 0.00 in 0 W/m2
19:30 34.9 °F 30.2 °F 29.97 in WNW 8.0 mph 12.0 mph 83 % 0.00 in 0 W/m2
19:40 34.7 °F 30.1 °F 29.97 in WNW 8.0 mph 16.0 mph 83 % 0.00 in 0 W/m2
19:45 34.7 °F 29.8 °F 29.97 in WNW 9.0 mph 14.0 mph 82 % 0.00 in 0 W/m2
19:50 34.9 °F 29.9 °F 29.97 in WNW 8.0 mph 12.0 mph 82 % 0.00 in 0 W/m2
19:55 34.9 °F 29.9 °F 29.97 in WNW 8.0 mph 13.0 mph 82 % 0.00 in 0 W/m2
20:05 34.7 °F 29.8 °F 29.97 in WNW 7.0 mph 12.0 mph 82 % 0.00 in 0 W/m2
20:10 34.7 °F 29.8 °F 29.97 in WNW 10.0 mph 15.0 mph 82 % 0.00 in 0 W/m2
20:15 34.7 °F 29.5 °F 29.96 in NW 7.0 mph 10.0 mph 81 % 0.00 in 0 W/m2
20:20 34.5 °F 29.3 °F 29.97 in WNW 7.0 mph 11.0 mph 81 % 0.00 in 0 W/m2
20:25 34.5 °F 29.3 °F 29.97 in WNW 6.0 mph 12.0 mph 81 % 0.00 in 0 W/m2
20:30 34.5 °F 29.3 °F 29.97 in WNW 8.0 mph 12.0 mph 81 % 0.00 in 0 W/m2
20:35 34.5 °F 29.3 °F 29.97 in WNW 6.0 mph 9.0 mph 81 % 0.00 in 0 W/m2
20:46 34.2 °F 28.9 °F 29.97 in WNW 6.0 mph 12.0 mph 81 % 0.00 in 0 W/m2
20:56 34.0 °F 29.1 °F 29.97 in WNW 9.0 mph 14.0 mph 82 % 0.00 in 0 W/m2
21:01 33.8 °F 28.9 °F 29.96 in WNW 7.0 mph 13.0 mph 82 % 0.00 in 0 W/m2
21:06 33.8 °F 28.6 °F 29.96 in WNW 7.0 mph 12.0 mph 81 % 0.00 in 0 W/m2
21:21 33.8 °F 28.6 °F 29.97 in WNW 6.0 mph 10.0 mph 81 % 0.00 in 0 W/m2
21:31 33.4 °F 28.2 °F 29.97 in WNW 4.0 mph 6.0 mph 81 % 0.00 in 0 W/m2
21:36 33.3 °F 28.1 °F 29.96 in WNW 1.0 mph 4.0 mph 81 % 0.00 in 0 W/m2
21:46 32.9 °F 27.7 °F 29.96 in WNW 4.0 mph 8.0 mph 81 % 0.00 in 0 W/m2
21:51 32.7 °F 27.8 °F 29.96 in WNW 4.0 mph 7.0 mph 82 % 0.00 in 0 W/m2
21:56 32.7 °F 27.8 °F 29.96 in WNW 4.0 mph 8.0 mph 82 % 0.00 in 0 W/m2
22:01 32.7 °F 27.8 °F 29.96 in WNW 6.0 mph 12.0 mph 82 % 0.00 in 0 W/m2
22:06 32.7 °F 27.8 °F 29.96 in WNW 7.0 mph 10.0 mph 82 % 0.00 in 0 W/m2
22:16 33.1 °F 28.2 °F 29.96 in WNW 7.0 mph 11.0 mph 82 % 0.00 in 0 W/m2
22:26 33.1 °F 27.9 °F 29.96 in WNW 6.0 mph 11.0 mph 81 % 0.00 in 0 W/m2
22:31 33.1 °F 28.2 °F 29.96 in WNW 6.0 mph 9.0 mph 82 % 0.00 in 0 W/m2
22:36 32.9 °F 27.7 °F 29.96 in WNW 5.0 mph 8.0 mph 81 % 0.00 in 0 W/m2
22:46 32.7 °F 27.8 °F 29.96 in WNW 5.0 mph 7.0 mph 82 % 0.00 in 0 W/m2
22:52 32.5 °F 27.7 °F 29.96 in WNW 6.0 mph 9.0 mph 82 % 0.00 in 0 W/m2
22:57 32.5 °F 27.7 °F 29.95 in WNW 5.0 mph 10.0 mph 82 % 0.00 in 0 W/m2
23:12 32.4 °F 27.5 °F 29.95 in WNW 5.0 mph 7.0 mph 82 % 0.00 in 0 W/m2
23:27 32.2 °F 27.3 °F 29.95 in WNW 4.0 mph 8.0 mph 82 % 0.00 in 0 W/m2
23:28 32.2 °F 27.3 °F 29.95 in WNW 4.0 mph 7.0 mph 82 % 0.00 in 0 W/m2
23:33 32.0 °F 27.1 °F 29.95 in WNW 5.0 mph 9.0 mph 82 % 0.00 in 0 W/m2
23:38 31.8 °F 27.2 °F 29.95 in WNW 5.0 mph 9.0 mph 83 % 0.00 in 0 W/m2
23:44 31.8 °F 27.2 °F 29.95 in WNW 6.0 mph 10.0 mph 83 % 0.00 in 0 W/m2
23:49 31.8 °F 27.2 °F 29.95 in WNW 3.0 mph 8.0 mph 83 % 0.00 in 0 W/m2
23:59 31.8 °F 27.2 °F 29.95 in WNW 6.0 mph 10.0 mph 83 % 0.00 in 0 W/m2
Delerius-Weather
Compliments of Weather Underground - 2 mb

Data updates at regular intervals.